Time;durP1;ratioP1;P1;durP2;ratioP2;P2;SDS_P1;SDS_P2;PMS_P1;PMS_P2;Temp;Humidity;BMP_temperature;BMP_pressure;BME280_temperature;BME280_humidity;BME280_pressure;Samples;Min_cycle;Max_cycle;Signal;HPM_P1;HPM_P2
2022/03/06 00:00:08;;;;;;;;;44.75;35.00;;;;;7.74;42.91;99348.47;6261279;27;97267;-63
2022/03/06 00:03:14;;;;;;;;;48.00;38.00;;;;;7.75;43.02;99346.63;6261389;27;96840;-60
2022/03/06 00:06:18;;;;;;;;;43.25;33.00;;;;;7.77;42.98;99347.25;6261335;27;96466;-60
2022/03/06 00:09:21;;;;;;;;;43.00;36.00;;;;;7.73;43.12;99345.97;6260120;27;97131;-62
2022/03/06 00:12:26;;;;;;;;;47.00;35.00;;;;;7.73;43.10;99340.59;6265455;27;96377;-62
2022/03/06 00:15:29;;;;;;;;;44.60;36.00;;;;;7.73;43.03;99340.59;6264293;27;98779;-62
2022/03/06 00:18:35;;;;;;;;;41.20;35.00;;;;;7.66;42.99;99345.09;6265863;27;96974;-62
2022/03/06 00:21:39;;;;;;;;;45.00;36.00;;;;;7.69;43.05;99340.16;6263839;27;98394;-62
2022/03/06 00:24:42;;;;;;;;;46.25;36.00;;;;;7.69;42.93;99345.53;6266080;27;96995;-63
2022/03/06 00:27:47;;;;;;;;;45.00;36.00;;;;;7.66;42.99;99337.88;6265717;27;96318;-62
2022/03/06 00:30:50;;;;;;;;;46.00;35.00;;;;;7.60;43.21;99335.94;6265155;27;96536;-60
2022/03/06 00:33:54;;;;;;;;;45.00;35.00;;;;;7.50;43.38;99331.91;6265708;27;96721;-63
2022/03/06 00:36:57;;;;;;;;;43.00;35.75;;;;;7.42;43.36;99335.56;6265351;27;97411;-62
2022/03/06 00:40:00;;;;;;;;;40.80;35.00;;;;;7.42;43.73;99335.56;6265611;27;97448;-61
2022/03/06 00:43:05;;;;;;;;;44.75;35.00;;;;;7.42;43.40;99332.03;6263669;27;97676;-63
2022/03/06 00:46:08;;;;;;;;;47.80;36.00;;;;;7.38;43.44;99339.63;6263931;27;97343;-62
2022/03/06 00:49:12;;;;;;;;;45.00;35.00;;;;;7.40;43.51;99333.06;6265393;27;97380;-61
2022/03/06 00:52:15;;;;;;;;;45.00;35.60;;;;;7.39;43.57;99327.88;6265119;27;97414;-62
2022/03/06 00:55:18;;;;;;;;;44.50;35.00;;;;;7.42;43.64;99334.72;6263014;27;96839;-61
2022/03/06 00:58:23;;;;;;;;;46.20;36.00;;;;;7.49;43.30;99340.97;6245174;27;97753;-61
2022/03/06 01:01:26;;;;;;;;;43.00;35.00;;;;;7.51;43.60;99333.59;6264540;27;97570;-60
2022/03/06 01:04:30;;;;;;;;;43.25;34.00;;;;;7.49;43.44;99339.13;6263714;27;96648;-62
2022/03/06 01:07:33;;;;;;;;;45.50;35.50;;;;;7.44;43.37;99335.34;6263269;27;99694;-61
2022/03/06 01:10:38;;;;;;;;;43.00;34.20;;;;;7.42;43.41;99330.19;6264787;27;97433;-61
2022/03/06 01:13:42;;;;;;;;;44.00;35.00;;;;;7.42;43.44;99329.38;6262933;27;96563;-64
2022/03/06 01:16:46;;;;;;;;;45.00;33.40;;;;;7.42;43.34;99330.19;6261446;27;96556;-61
2022/03/06 01:19:51;;;;;;;;;44.40;35.00;;;;;7.38;43.28;99318.16;6262002;27;97801;-60
2022/03/06 01:22:55;;;;;;;;;43.00;34.50;;;;;7.44;43.26;99333.50;6259905;27;96649;-63
2022/03/06 01:25:58;;;;;;;;;42.80;34.80;;;;;7.38;43.34;99318.16;6261319;27;96770;-63
2022/03/06 01:29:05;;;;;;;;;39.80;33.40;;;;;7.39;43.56;99325.19;6262845;27;97160;-62
2022/03/06 01:32:08;;;;;;;;;42.50;35.00;;;;;7.38;43.46;99326.22;6264584;27;96628;-62
2022/03/06 01:35:13;;;;;;;;;42.00;33.80;;;;;7.34;43.63;99327.63;6264084;27;97015;-63
2022/03/06 01:38:16;;;;;;;;;42.40;34.40;;;;;7.26;44.02;99330.44;6264914;27;96303;-66
2022/03/06 01:41:19;;;;;;;;;41.00;33.00;;;;;7.27;44.00;99332.09;6264526;27;97054;-62
2022/03/06 01:44:24;;;;;;;;;41.50;33.50;;;;;7.29;43.74;99332.72;6264081;27;97101;-60
2022/03/06 01:47:35;;;;;;;;;42.40;35.00;;;;;7.30;44.00;99324.50;6264245;27;97429;-63
2022/03/06 01:50:39;;;;;;;;;44.40;34.00;;;;;7.36;43.71;99326.44;6264578;27;96421;-63
2022/03/06 01:53:42;;;;;;;;;40.25;33.00;;;;;7.35;43.74;99337.34;6264187;27;96451;-63
2022/03/06 01:56:46;;;;;;;;;38.25;32.00;;;;;7.23;44.14;99330.81;6264055;27;97531;-63
2022/03/06 01:59:51;;;;;;;;;45.40;35.00;;;;;7.19;44.03;99333.03;6245329;27;96618;-62
2022/03/06 02:02:54;;;;;;;;;39.60;33.00;;;;;7.26;43.80;99327.75;6263610;27;97512;-62
2022/03/06 02:05:58;;;;;;;;;40.60;33.00;;;;;7.23;44.05;99328.94;6262731;27;96258;-62
2022/03/06 02:09:01;;;;;;;;;40.25;33.00;;;;;7.09;44.34;99340.53;6262215;27;96512;-61
2022/03/06 02:12:25;;;;;;;;;43.00;36.00;;;;;7.21;44.10;99332.84;6263407;27;96864;-61
2022/03/06 02:15:29;;;;;;;;;44.80;34.20;;;;;7.19;44.28;99332.19;6263655;27;97025;-62
2022/03/06 02:18:33;;;;;;;;;40.60;34.60;;;;;7.21;44.04;99328.31;6263555;27;97032;-61
2022/03/06 02:21:37;;;;;;;;;43.00;34.00;;;;;7.13;44.35;99328.44;6263426;27;97383;-62
2022/03/06 02:24:40;;;;;;;;;46.00;35.50;;;;;7.12;44.36;99324.09;6263562;27;98215;-63
2022/03/06 02:27:44;;;;;;;;;43.33;35.00;;;;;7.03;44.60;99322.56;6263307;27;97032;-62
2022/03/06 02:30:47;;;;;;;;;44.20;35.00;;;;;7.08;44.24;99319.31;6263047;27;96473;-62
2022/03/06 02:33:50;;;;;;;;;40.00;33.60;;;;;7.12;44.22;99312.53;6262587;27;97520;-60
2022/03/06 02:36:55;;;;;;;;;43.80;35.00;;;;;7.05;44.48;99316.97;6263111;27;96461;-63
2022/03/06 02:40:00;;;;;;;;;39.20;33.40;;;;;7.08;44.55;99316.63;6261321;27;98377;-62
2022/03/06 02:43:05;;;;;;;;;43.75;35.50;;;;;7.11;44.43;99308.19;6263357;27;97361;-62
2022/03/06 02:46:08;;;;;;;;;41.00;33.00;;;;;7.14;44.38;99307.78;6262916;27;97466;-63
2022/03/06 02:49:13;;;;;;;;;46.80;35.20;;;;;7.17;44.29;99315.47;6263738;27;97126;-63
2022/03/06 02:52:18;;;;;;;;;45.00;36.00;;;;;7.13;44.24;99301.63;6262989;27;97483;-61
2022/03/06 02:55:22;;;;;;;;;46.50;35.50;;;;;7.20;44.19;99309.72;6263343;27;97480;-63
2022/03/06 02:58:25;;;;;;;;;41.40;34.00;;;;;7.21;44.08;99306.88;6261905;27;97359;-61
2022/03/06 03:01:28;;;;;;;;;45.00;35.00;;;;;7.24;44.10;99311.84;6262199;27;96281;-64
2022/03/06 03:04:33;;;;;;;;;45.00;35.00;;;;;7.13;44.07;99309.66;6262774;27;97011;-64
2022/03/06 03:07:39;;;;;;;;;41.40;34.00;;;;;7.11;44.33;99303.66;6262942;27;96855;-62
2022/03/06 03:10:43;;;;;;;;;40.20;35.00;;;;;7.00;44.53;99300.63;6263365;27;97525;-63
2022/03/06 03:13:46;;;;;;;;;42.00;34.40;;;;;7.01;44.48;99308.50;6260604;27;97543;-61
2022/03/06 03:16:49;;;;;;;;;42.75;35.50;;;;;7.08;44.40;99309.41;6260098;27;97172;-63
2022/03/06 03:19:53;;;;;;;;;40.20;33.20;;;;;7.08;44.31;99313.94;6241113;27;96610;-60
2022/03/06 03:22:57;;;;;;;;;43.75;33.00;;;;;7.10;44.22;99306.50;6260156;27;96940;-60
2022/03/06 03:26:01;;;;;;;;;36.75;32.00;;;;;7.11;44.22;99306.34;6258673;27;96754;-62
2022/03/06 03:29:04;;;;;;;;;43.40;34.80;;;;;7.08;44.80;99314.78;6260448;27;97332;-60
2022/03/06 03:32:08;;;;;;;;;41.40;35.00;;;;;6.98;44.49;99303.53;6262286;27;96684;-64
2022/03/06 03:35:12;;;;;;;;;44.60;35.40;;;;;7.00;44.42;99311.34;6243822;27;97903;-61
2022/03/06 03:38:17;;;;;;;;;46.00;34.00;;;;;7.02;44.30;99314.69;6243328;27;97753;-61
2022/03/06 03:41:22;;;;;;;;;40.80;33.80;;;;;6.99;44.53;99309.72;6262530;27;96429;-62
2022/03/06 03:44:25;;;;;;;;;44.75;35.00;;;;;6.95;44.56;99323.47;6261261;27;96433;-63
2022/03/06 03:47:29;;;;;;;;;46.00;36.00;;;;;6.90;44.53;99312.47;6262462;27;96321;-62
2022/03/06 03:50:32;;;;;;;;;44.40;36.00;;;;;6.86;44.65;99313.88;6262431;27;97660;-64
2022/03/06 03:53:37;;;;;;;;;45.00;35.00;;;;;6.92;44.55;99318.50;6243426;27;96663;-60
2022/03/06 03:56:42;;;;;;;;;45.60;34.60;;;;;6.90;44.55;99320.53;6243235;27;98520;-60
2022/03/06 03:59:46;;;;;;;;;44.50;34.00;;;;;6.96;44.61;99324.31;6261959;27;96396;-63
2022/03/06 04:02:49;;;;;;;;;39.80;33.00;;;;;6.93;44.37;99327.38;6261408;27;96392;-62
2022/03/06 04:05:53;;;;;;;;;45.00;34.00;;;;;6.89;44.30;99324.22;6260528;27;97490;-63
2022/03/06 04:08:57;;;;;;;;;38.00;33.00;;;;;6.83;44.73;99318.78;6243711;27;97474;-63
2022/03/06 04:12:01;;;;;;;;;41.50;34.25;;;;;6.82;44.58;99327.84;6261563;27;96461;-62
2022/03/06 04:15:04;;;;;;;;;41.00;33.60;;;;;6.71;44.59;99318.44;6261868;27;96461;-64
2022/03/06 04:18:08;;;;;;;;;42.60;34.60;;;;;6.77;44.54;99320.38;6261684;27;98220;-63
2022/03/06 04:21:11;;;;;;;;;40.00;33.00;;;;;6.73;44.29;99323.59;6262097;27;96441;-61
2022/03/06 04:24:15;;;;;;;;;40.60;33.00;;;;;6.64;44.63;99325.56;6242773;27;99473;-63
2022/03/06 04:27:19;;;;;;;;;44.00;34.50;;;;;6.59;44.71;99332.50;6242565;27;98966;-62
2022/03/06 04:30:22;;;;;;;;;41.40;33.00;;;;;6.54;44.85;99327.69;6261046;27;96491;-64
2022/03/06 04:33:26;;;;;;;;;40.60;33.00;;;;;6.55;44.59;99326.66;6261148;27;97395;-62
2022/03/06 04:36:29;;;;;;;;;38.00;32.40;;;;;6.59;44.54;99335.16;6259350;27;97488;-63
2022/03/06 04:39:34;;;;;;;;;42.00;33.40;;;;;6.57;44.83;99324.63;6261714;27;97156;-61
2022/03/06 04:42:37;;;;;;;;;42.00;33.00;;;;;6.65;44.54;99329.88;6243153;27;97506;-63
2022/03/06 04:45:41;;;;;;;;;41.00;33.00;;;;;6.73;44.51;99328.97;6242488;27;98160;-61
2022/03/06 04:48:44;;;;;;;;;43.00;33.00;;;;;6.74;44.33;99325.28;6260788;27;96547;-63
2022/03/06 04:51:47;;;;;;;;;39.40;33.00;;;;;6.78;44.27;99327.41;6223320;27;98790;-62
2022/03/06 04:54:52;;;;;;;;;38.25;33.00;;;;;6.81;44.21;99328.84;6257823;27;96905;-62
2022/03/06 04:57:56;;;;;;;;;35.00;32.00;;;;;6.90;43.97;99330.41;6261437;27;97469;-63
2022/03/06 05:01:00;;;;;;;;;40.00;32.00;;;;;6.87;44.04;99336.16;6262224;27;96443;-62
2022/03/06 05:04:03;;;;;;;;;37.00;32.00;;;;;6.87;44.07;99337.00;6262112;27;97521;-61
2022/03/06 05:07:06;;;;;;;;;36.00;31.00;;;;;6.92;44.06;99339.09;6264240;27;96887;-60
2022/03/06 05:10:12;;;;;;;;;36.20;31.80;;;;;6.95;43.74;99336.88;6265624;27;96840;-61
2022/03/06 05:13:16;;;;;;;;;41.00;32.00;;;;;6.94;43.48;99335.22;6265503;27;96463;-62
2022/03/06 05:16:19;;;;;;;;;39.00;32.67;;;;;6.91;43.45;99340.13;6246559;27;98622;-63
2022/03/06 05:19:22;;;;;;;;;37.00;31.00;;;;;6.93;43.47;99343.44;6229513;27;99349;-62
2022/03/06 05:22:28;;;;;;;;;33.00;30.00;;;;;6.97;43.42;99339.38;6264855;27;96474;-60
2022/03/06 05:25:33;;;;;;;;;35.20;30.00;;;;;6.92;43.42;99344.47;6264225;27;97936;-63
2022/03/06 05:28:36;;;;;;;;;38.20;32.00;;;;;6.97;43.33;99344.75;6264857;27;97426;-63
2022/03/06 05:31:42;;;;;;;;;36.75;30.00;;;;;6.96;42.67;99349.25;6264582;27;96552;-63
2022/03/06 05:34:45;;;;;;;;;29.00;28.00;;;;;6.96;42.83;99343.91;6264645;27;97625;-64
2022/03/06 05:37:48;;;;;;;;;34.60;30.00;;;;;6.99;42.48;99337.31;6264854;27;96627;-61
2022/03/06 05:40:53;;;;;;;;;39.00;30.00;;;;;7.00;42.57;99340.84;6264627;27;96471;-62
2022/03/06 05:43:56;;;;;;;;;29.60;26.60;;;;;7.00;42.55;99336.31;6264883;27;96476;-62
2022/03/06 05:46:59;;;;;;;;;32.00;28.00;;;;;6.96;42.56;99337.72;6264066;27;96378;-60
2022/03/06 05:50:04;;;;;;;;;32.00;27.00;;;;;7.02;42.49;99330.78;6248314;27;97541;-61
2022/03/06 05:53:08;;;;;;;;;32.40;27.40;;;;;6.99;42.33;99325.78;6260482;27;97780;-62
2022/03/06 05:56:13;;;;;;;;;31.40;27.20;;;;;7.03;42.14;99327.91;6264275;27;97377;-64
2022/03/06 05:59:16;;;;;;;;;28.40;25.40;;;;;7.02;41.73;99320.88;6263125;27;96747;-60
2022/03/06 06:02:19;;;;;;;;;31.00;27.00;;;;;7.03;41.92;99332.44;6244066;27;99583;-60
2022/03/06 06:05:23;;;;;;;;;31.40;27.40;;;;;7.01;41.67;99323.75;6243893;27;99380;-62
2022/03/06 06:08:26;;;;;;;;;30.40;26.00;;;;;7.06;41.71;99326.69;6261663;27;96510;-61
2022/03/06 06:11:31;;;;;;;;;30.50;26.25;;;;;7.12;41.72;99329.47;6261361;27;96992;-60
2022/03/06 06:14:34;;;;;;;;;30.50;27.00;;;;;7.10;41.45;99331.47;6242687;27;96548;-63
2022/03/06 06:17:38;;;;;;;;;29.00;26.50;;;;;7.15;41.79;99333.59;6260579;27;96486;-63
2022/03/06 06:20:41;;;;;;;;;32.00;28.25;;;;;7.19;41.55;99335.72;6260527;27;98105;-61
2022/03/06 06:23:45;;;;;;;;;28.80;26.00;;;;;7.20;41.36;99336.53;6262085;27;97590;-62
2022/03/06 06:26:53;;;;;;;;;30.00;26.40;;;;;7.22;41.22;99335.34;6262758;27;98082;-64
2022/03/06 06:29:57;;;;;;;;;27.00;25.00;;;;;7.26;41.37;99331.25;6261860;27;97210;-63
2022/03/06 06:33:00;;;;;;;;;31.80;26.80;;;;;7.27;40.84;99332.09;6263460;27;97232;-63
2022/03/06 06:36:04;;;;;;;;;29.00;22.20;;;;;7.30;40.96;99332.53;6263788;27;97584;-63
2022/03/06 06:39:09;;;;;;;;;23.00;22.00;;;;;7.24;40.38;99327.94;6263177;27;96598;-63
2022/03/06 06:42:14;;;;;;;;;28.00;25.00;;;;;7.31;40.31;99336.88;6263637;27;96897;-64
2022/03/06 06:45:17;;;;;;;;;27.50;22.25;;;;;7.34;39.81;99344.53;6263235;27;96503;-64
2022/03/06 06:48:21;;;;;;;;;24.50;23.00;;;;;7.27;39.73;99343.66;6244954;27;96288;-64
2022/03/06 06:51:24;;;;;;;;;23.60;21.60;;;;;7.22;39.89;99351.44;6242785;27;96628;-62
2022/03/06 06:54:27;;;;;;;;;22.40;21.40;;;;;7.25;39.82;99353.72;6260484;27;97513;-62
2022/03/06 06:57:32;;;;;;;;;26.80;23.00;;;;;7.26;39.60;99358.06;6260383;27;96928;-61
2022/03/06 07:00:36;;;;;;;;;24.00;20.20;;;;;7.18;39.92;99354.69;6259731;27;96688;-62
2022/03/06 07:03:39;;;;;;;;;21.00;19.40;;;;;7.25;39.36;99355.59;6259913;27;96521;-61
2022/03/06 07:06:43;;;;;;;;;21.00;19.00;;;;;7.16;38.75;99362.91;6267288;27;97033;-63
2022/03/06 07:09:46;;;;;;;;;19.60;17.60;;;;;7.22;38.79;99356.81;6280609;27;96645;-62
2022/03/06 07:12:55;;;;;;;;;22.00;19.25;;;;;7.27;38.70;99361.59;6268965;27;96428;-63
2022/03/06 07:15:58;;;;;;;;;26.00;19.80;;;;;7.30;38.51;99361.22;6244753;27;97023;-62
2022/03/06 07:19:02;;;;;;;;;20.40;19.40;;;;;7.36;38.66;99366.66;6262753;27;96383;-62
2022/03/06 07:22:05;;;;;;;;;21.00;18.00;;;;;7.37;37.90;99365.66;6261971;27;98096;-61
2022/03/06 07:25:10;;;;;;;;;21.00;17.80;;;;;7.42;38.21;99369.59;6243763;27;97891;-64
2022/03/06 07:28:14;;;;;;;;;21.00;18.60;;;;;7.44;37.78;99363.00;6262032;27;97563;-62
2022/03/06 07:31:17;;;;;;;;;22.00;18.00;;;;;7.46;37.01;99362.84;6243689;27;97444;-61
2022/03/06 07:34:20;;;;;;;;;21.00;19.00;;;;;7.39;36.83;99357.38;6262139;27;96747;-63
2022/03/06 07:37:24;;;;;;;;;18.40;17.40;;;;;7.39;37.10;99360.06;6243418;27;96835;-60
2022/03/06 07:40:27;;;;;;;;;17.60;16.60;;;;;7.36;36.98;99361.28;6261964;27;96882;-61
2022/03/06 07:43:35;;;;;;;;;17.25;16.25;;;;;7.43;37.12;99347.13;6262018;27;96687;-62
2022/03/06 07:46:38;;;;;;;;;21.20;19.00;;;;;7.43;36.60;99352.50;6262303;27;97052;-61
2022/03/06 07:49:42;;;;;;;;;17.00;16.00;;;;;7.45;36.58;99353.13;6243160;27;96988;-64
2022/03/06 07:52:46;;;;;;;;;18.00;16.00;;;;;7.54;36.89;99354.66;6261931;27;97179;-60
2022/03/06 07:55:49;;;;;;;;;17.00;17.00;;;;;7.64;36.53;99355.16;6262008;27;96696;-63
2022/03/06 07:58:54;;;;;;;;;20.00;19.00;;;;;7.65;36.02;99351.47;6262369;27;97346;-62
2022/03/06 08:01:57;;;;;;;;;16.60;12.20;;;;;7.71;35.56;99346.19;6262040;27;98083;-60
2022/03/06 08:05:01;;;;;;;;;15.00;13.60;;;;;7.81;35.57;99341.31;6261287;27;97429;-63
2022/03/06 08:08:04;;;;;;;;;14.00;12.50;;;;;7.89;34.95;99343.03;6243671;27;96387;-60
2022/03/06 08:11:08;;;;;;;;;14.20;12.20;;;;;7.94;35.00;99342.44;6243735;27;96557;-60
2022/03/06 08:14:12;;;;;;;;;13.50;12.75;;;;;7.99;34.73;99340.84;6262219;27;98089;-64
2022/03/06 08:17:16;;;;;;;;;12.00;11.00;;;;;7.98;34.13;99338.34;6261057;27;96627;-64
2022/03/06 08:20:20;;;;;;;;;12.00;12.00;;;;;7.84;33.97;99329.34;6260209;27;97909;-63
2022/03/06 08:23:23;;;;;;;;;14.00;11.00;;;;;7.92;34.09;99339.09;6260575;27;97488;-64
2022/03/06 08:26:27;;;;;;;;;13.00;12.00;;;;;7.85;33.67;99344.44;6260240;27;96942;-64
2022/03/06 08:29:32;;;;;;;;;14.25;12.75;;;;;7.83;33.92;99335.72;6260382;27;97402;-63
2022/03/06 08:32:35;;;;;;;;;10.80;10.00;;;;;7.90;34.16;99336.63;6264319;27;97102;-63
2022/03/06 08:35:38;;;;;;;;;12.00;11.50;;;;;7.88;34.12;99333.31;6265772;27;97308;-63
2022/03/06 08:38:42;;;;;;;;;16.33;15.00;;;;;7.81;33.67;99340.47;6265687;27;97434;-64
2022/03/06 08:41:46;;;;;;;;;13.00;12.00;;;;;7.75;34.01;99334.03;6263550;27;97110;-62
2022/03/06 08:44:51;;;;;;;;;12.40;11.60;;;;;7.73;34.30;99332.53;6265279;27;97069;-62
2022/03/06 08:47:54;;;;;;;;;17.40;15.40;;;;;7.74;34.48;99336.91;6264593;27;97571;-62
2022/03/06 08:50:58;;;;;;;;;13.75;12.75;;;;;7.78;34.06;99330.13;6264984;27;97119;-62
2022/03/06 08:54:02;;;;;;;;;13.00;12.00;;;;;7.87;33.96;99328.94;6264705;27;96445;-61
2022/03/06 08:57:06;;;;;;;;;12.00;12.00;;;;;7.70;33.90;99306.94;6264671;27;97388;-61
2022/03/06 09:00:12;;;;;;;;;11.40;9.40;;;;;7.88;33.77;99335.16;6264415;27;97501;-64
2022/03/06 09:03:15;;;;;;;;;12.75;11.00;;;;;7.95;33.84;99330.69;6263056;27;99146;-63
2022/03/06 09:06:19;;;;;;;;;11.00;9.60;;;;;7.78;33.64;99336.31;6262410;27;97248;-61
2022/03/06 09:09:22;;;;;;;;;10.75;9.00;;;;;7.49;33.45;99346.34;6259998;27;97829;-62
2022/03/06 09:12:26;;;;;;;;;8.40;8.00;;;;;7.15;33.78;99342.47;6265469;27;97069;-61
2022/03/06 09:15:31;;;;;;;;;9.00;8.25;;;;;7.09;34.15;99337.84;6265249;27;97554;-64
2022/03/06 09:18:34;;;;;;;;;8.80;8.00;;;;;7.12;34.19;99323.25;6265398;27;97446;-61
2022/03/06 09:21:38;;;;;;;;;11.00;10.00;;;;;7.23;34.13;99328.94;6264777;27;96572;-61
2022/03/06 09:24:42;;;;;;;;;10.75;9.00;;;;;7.43;34.32;99333.72;6263172;27;97755;-61
2022/03/06 09:27:45;;;;;;;;;10.20;8.20;;;;;7.38;34.08;99324.34;6264586;27;97106;-61
2022/03/06 09:30:50;;;;;;;;;10.00;10.00;;;;;7.44;34.04;99312.03;6264413;27;96679;-62
2022/03/06 09:33:54;;;;;;;;;11.00;10.00;;;;;7.79;34.02;99321.88;6236847;27;97667;-62
2022/03/06 09:37:17;;;;;;;;;11.60;10.00;;;;;7.95;33.77;99331.50;6230241;28;97965;-63
2022/03/06 09:40:20;;;;;;;;;10.00;10.00;;;;;8.08;33.26;99326.25;6226510;27;97673;-63
2022/03/06 09:43:23;;;;;;;;;13.40;11.00;;;;;8.27;32.58;99328.25;6262507;27;96954;-64
2022/03/06 09:46:28;;;;;;;;;10.00;8.60;;;;;8.27;32.37;99314.81;6244775;27;98400;-64
2022/03/06 09:49:31;;;;;;;;;13.00;11.60;;;;;8.47;32.14;99325.72;6252528;27;96425;-61
2022/03/06 09:52:34;;;;;;;;;14.00;10.25;;;;;8.59;32.22;99316.09;6238795;28;96351;-64
2022/03/06 09:55:38;;;;;;;;;13.40;12.00;;;;;8.68;32.70;99311.38;6237432;28;97942;-61
2022/03/06 09:58:42;;;;;;;;;13.00;12.00;;;;;8.70;32.01;99317.34;6220411;28;96535;-63
2022/03/06 10:01:47;;;;;;;;;11.00;10.40;;;;;8.69;31.90;99321.09;6220282;28;97011;-62
2022/03/06 10:04:52;;;;;;;;;13.40;11.40;;;;;8.76;31.58;99315.72;6238873;28;97351;-60
2022/03/06 10:08:16;;;;;;;;;11.00;10.00;;;;;8.86;31.51;99326.94;6225504;27;99927;-60
2022/03/06 10:11:21;;;;;;;;;12.00;10.00;;;;;8.77;31.02;99325.47;6245712;27;96515;-62
2022/03/06 10:14:39;;;;;;;;;12.40;11.00;;;;;8.86;31.43;99321.56;6262380;27;96787;-60
2022/03/06 10:17:43;;;;;;;;;10.00;9.00;;;;;8.93;31.45;99315.22;6245211;27;96947;-61
2022/03/06 10:20:47;;;;;;;;;12.00;12.00;;;;;9.03;31.58;99320.22;6263463;27;97070;-64
2022/03/06 10:23:55;;;;;;;;;12.40;12.00;;;;;9.07;30.48;99314.22;6244451;27;96589;-63
2022/03/06 10:26:58;;;;;;;;;10.75;9.50;;;;;9.03;30.62;99312.16;6263136;27;96675;-60
2022/03/06 10:30:01;;;;;;;;;10.60;10.60;;;;;9.11;30.78;99317.34;6244957;27;97491;-62
2022/03/06 10:33:10;;;;;;;;;12.00;11.80;;;;;9.20;30.64;99305.34;6245098;27;96415;-62
2022/03/06 10:36:14;;;;;;;;;12.00;10.00;;;;;8.85;29.65;99312.69;6261609;27;97424;-62
2022/03/06 10:39:19;;;;;;;;;12.00;10.40;;;;;8.77;30.00;99301.28;6262943;27;97135;-61
2022/03/06 10:42:23;;;;;;;;;10.00;9.00;;;;;8.75;29.81;99295.28;6238283;28;97515;-63
2022/03/06 10:45:26;;;;;;;;;11.40;10.00;;;;;8.96;30.42;99301.34;6237771;28;97437;-62
2022/03/06 10:48:31;;;;;;;;;8.60;7.60;;;;;9.01;30.42;99290.00;6237715;28;97070;-62
2022/03/06 10:51:37;;;;;;;;;11.00;10.50;;;;;9.23;30.68;99299.59;6244482;27;96724;-63
2022/03/06 10:54:49;;;;;;;;;10.00;9.00;;;;;9.14;29.41;99292.72;6259533;27;99364;-60
2022/03/06 10:57:57;;;;;;;;;10.20;10.20;;;;;9.25;29.95;99299.38;6261663;27;98044;-61
2022/03/06 11:01:03;;;;;;;;;10.00;9.00;;;;;9.11;29.09;99295.81;6259860;27;96810;-62
2022/03/06 11:04:08;;;;;;;;;10.00;10.00;;;;;9.03;29.41;99296.00;6259670;27;96995;-62
2022/03/06 11:07:12;;;;;;;;;12.00;10.75;;;;;9.04;29.87;99289.59;6261514;27;96987;-62
2022/03/06 11:10:17;;;;;;;;;9.00;8.00;;;;;9.15;29.54;99291.69;6260016;27;97037;-62
2022/03/06 11:13:20;;;;;;;;;9.00;9.00;;;;;9.20;30.14;99291.91;6261611;27;98370;-66
2022/03/06 11:16:28;;;;;;;;;10.40;10.00;;;;;9.24;29.71;99279.69;6261980;27;96907;-63
2022/03/06 11:19:36;;;;;;;;;11.20;9.80;;;;;9.37;30.04;99273.53;6261528;27;96547;-61
2022/03/06 11:22:47;;;;;;;;;9.40;8.60;;;;;9.44;29.39;99269.81;6259674;27;97599;-62
2022/03/06 11:26:20;;;;;;;;;11.00;10.00;;;;;9.47;29.35;99266.72;6258807;27;98015;-61
2022/03/06 11:30:08;;;;;;;;;10.00;9.00;;;;;9.53;29.63;99259.66;6260561;27;97451;-64
2022/03/06 11:33:12;;;;;;;;;11.00;10.00;;;;;9.53;29.69;99256.97;6245582;27;97699;-61
2022/03/06 11:36:21;;;;;;;;;9.00;8.50;;;;;9.44;29.14;99252.81;6254044;27;97713;-62
2022/03/06 11:39:47;;;;;;;;;11.40;9.00;;;;;9.44;29.97;99253.66;6257742;27;98018;-63
2022/03/06 11:42:55;;;;;;;;;12.40;11.00;;;;;9.47;29.60;99250.59;6261395;27;96569;-60
2022/03/06 11:46:16;;;;;;;;;9.50;8.00;;;;;9.43;29.47;99256.59;6260518;27;97522;-63
2022/03/06 11:49:19;;;;;;;;;10.00;10.00;;;;;9.48;29.40;99248.72;6261692;27;97550;-62
2022/03/06 11:52:28;;;;;;;;;9.00;9.00;;;;;9.46;28.89;99248.91;6261382;27;96844;-61
2022/03/06 11:55:33;;;;;;;;;9.00;8.75;;;;;9.38;29.58;99246.41;6226365;27;97745;-61
2022/03/06 11:58:53;;;;;;;;;10.80;9.80;;;;;9.38;30.02;99232.16;6243884;27;97424;-61
2022/03/06 12:01:58;;;;;;;;;11.20;10.60;;;;;9.45;29.81;99235.66;6261781;27;96462;-62
2022/03/06 12:05:01;;;;;;;;;12.40;10.80;;;;;9.48;29.57;99228.00;6261109;27;96641;-62
2022/03/06 12:08:11;;;;;;;;;13.00;11.20;;;;;9.46;29.95;99230.06;6260696;27;96475;-62
2022/03/06 12:11:15;;;;;;;;;8.50;8.00;;;;;9.53;29.57;99230.88;6261940;27;96865;-62
2022/03/06 12:14:20;;;;;;;;;9.00;8.20;;;;;9.66;29.39;99227.38;6261873;27;98169;-62
2022/03/06 12:17:35;;;;;;;;;9.40;9.00;;;;;9.73;29.51;99205.84;6261890;27;96349;-64
2022/03/06 12:20:44;;;;;;;;;9.80;9.00;;;;;9.80;29.18;99207.50;6244015;27;96958;-62
2022/03/06 12:23:48;;;;;;;;;12.00;11.40;;;;;9.71;29.16;99221.38;6261938;27;96666;-64
2022/03/06 12:26:54;;;;;;;;;9.60;9.00;;;;;9.28;29.24;99212.88;6260849;27;97081;-64
2022/03/06 12:29:59;;;;;;;;;8.50;8.00;;;;;9.14;29.92;99207.47;6243406;27;96614;-63
2022/03/06 12:33:41;;;;;;;;;10.50;10.25;;;;;9.20;30.28;99203.13;6261781;27;96383;-61
2022/03/06 12:36:54;;;;;;;;;11.20;10.80;;;;;9.23;30.30;99197.38;6241762;27;96480;-62
2022/03/06 12:39:59;;;;;;;;;11.60;11.00;;;;;9.35;29.88;99202.94;6261530;27;96866;-60
2022/03/06 12:43:05;;;;;;;;;9.50;9.00;;;;;9.37;29.36;99201.72;6261920;27;96395;-60
2022/03/06 12:46:09;;;;;;;;;10.20;9.20;;;;;9.38;29.98;99203.34;6261292;27;97022;-60
2022/03/06 12:49:13;;;;;;;;;13.00;12.00;;;;;9.29;29.87;99198.38;6242363;27;97388;-61
2022/03/06 12:52:21;;;;;;;;;11.80;10.80;;;;;9.25;29.78;99199.81;6226321;27;97908;-61
2022/03/06 12:55:26;;;;;;;;;9.00;8.00;;;;;9.18;29.75;99197.16;6261603;27;96435;-62
2022/03/06 12:58:39;;;;;;;;;10.00;9.00;;;;;9.14;29.86;99202.09;6246438;27;97727;-63
2022/03/06 13:01:44;;;;;;;;;8.75;8.50;;;;;8.92;30.05;99189.03;6260097;27;96425;-61
2022/03/06 13:04:49;;;;;;;;;8.00;8.00;;;;;8.89;30.11;99200.19;6260299;27;96722;-61
2022/03/06 13:07:53;;;;;;;;;10.00;9.00;;;;;8.88;30.59;99199.38;6259886;27;97570;-61
2022/03/06 13:11:07;;;;;;;;;11.40;9.40;;;;;8.91;30.79;99188.19;6259850;27;96576;-61
2022/03/06 13:14:10;;;;;;;;;11.20;11.00;;;;;8.97;30.84;99183.88;6258070;27;97816;-60
2022/03/06 13:17:13;;;;;;;;;11.00;9.00;;;;;9.09;30.36;99190.28;6259174;27;97781;-63
2022/03/06 13:20:17;;;;;;;;;12.00;11.40;;;;;9.00;29.95;99189.66;6262783;27;96563;-60
2022/03/06 13:23:21;;;;;;;;;11.50;11.00;;;;;9.03;30.39;99183.88;6257869;27;97143;-60
2022/03/06 13:26:29;;;;;;;;;10.00;10.00;;;;;9.07;30.62;99185.13;6228791;28;96918;-61
2022/03/06 13:29:32;;;;;;;;;13.00;12.75;;;;;9.10;30.74;99191.94;6214257;28;96340;-63
2022/03/06 13:32:38;;;;;;;;;11.00;11.00;;;;;9.14;30.24;99180.56;6233333;28;97484;-62
2022/03/06 13:35:43;;;;;;;;;10.00;10.00;;;;;9.18;30.33;99181.00;6239313;28;96436;-62
2022/03/06 13:38:46;;;;;;;;;12.40;11.00;;;;;9.18;30.67;99181.00;6238667;28;96373;-63
2022/03/06 13:41:53;;;;;;;;;12.00;11.00;;;;;9.18;30.38;99183.69;6213755;28;96957;-62
2022/03/06 13:44:59;;;;;;;;;9.20;9.00;;;;;9.17;30.51;99173.97;6213962;28;96359;-62
2022/03/06 13:48:05;;;;;;;;;12.00;11.00;;;;;9.16;30.35;99176.84;6213775;28;97567;-61
2022/03/06 13:51:18;;;;;;;;;9.00;9.00;;;;;9.05;30.12;99175.59;6214242;28;97406;-64
2022/03/06 13:54:22;;;;;;;;;10.60;9.00;;;;;9.04;30.70;99179.34;6213280;28;97424;-62
2022/03/06 13:57:26;;;;;;;;;10.80;10.00;;;;;9.02;30.32;99182.22;6225803;28;96583;-64
2022/03/06 14:00:32;;;;;;;;;9.40;9.00;;;;;9.06;30.00;99178.09;6238399;28;96487;-63
2022/03/06 14:03:38;;;;;;;;;11.00;10.00;;;;;8.93;29.80;99177.25;6238962;28;97409;-62
2022/03/06 14:06:43;;;;;;;;;10.20;9.20;;;;;8.83;29.92;99172.25;6238998;27;96982;-63
2022/03/06 14:09:48;;;;;;;;;13.20;13.00;;;;;8.79;30.33;99176.41;6236502;28;97440;-63
2022/03/06 14:12:56;;;;;;;;;11.40;11.00;;;;;8.81;30.37;99179.69;6239194;27;97021;-61
2022/03/06 14:16:02;;;;;;;;;11.00;10.80;;;;;8.83;30.63;99169.56;6238951;28;97477;-65
2022/03/06 14:19:07;;;;;;;;;12.80;11.80;;;;;8.83;30.27;99171.44;6237772;28;96448;-63
2022/03/06 14:22:16;;;;;;;;;12.00;11.00;;;;;8.72;30.48;99172.00;6238466;28;97392;-61